Time;durP1;ratioP1;P1;durP2;ratioP2;P2;SDS_P1;SDS_P2;PMS_P1;PMS_P2;Temp;Humidity;BMP_temperature;BMP_pressure;BME280_temperature;BME280_humidity;BME280_pressure;Samples;Min_cycle;Max_cycle;Signal;HPM_P1;HPM_P2
2023/06/08 00:00:39;;;;;;;10.52;5.75;;;15.50;99.90;;;;;;10357217;28;20256;-84
2023/06/08 00:05:47;;;;;;;7.82;7.07;;;15.60;99.90;;;;;;10375672;28;20333;-84
2023/06/08 00:10:49;;;;;;;11.27;7.70;;;15.90;99.90;;;;;;10392800;28;20236;-84
2023/06/08 00:15:52;;;;;;;11.63;7.53;;;15.70;99.90;;;;;;10412522;28;20224;-84
2023/06/08 00:20:54;;;;;;;11.50;8.88;;;15.50;99.90;;;;;;10411847;28;20250;-84
2023/06/08 00:25:57;;;;;;;8.10;6.43;;;15.10;99.90;;;;;;10391501;28;20232;-85
2023/06/08 00:30:59;;;;;;;9.35;8.32;;;15.10;99.90;;;;;;10412200;28;20618;-84
2023/06/08 00:36:04;;;;;;;11.65;8.05;;;15.10;99.90;;;;;;10394614;28;20234;-84
2023/06/08 00:41:08;;;;;;;7.53;6.82;;;15.00;99.90;;;;;;10380999;28;20301;-84
2023/06/08 00:46:12;;;;;;;13.68;8.07;;;15.00;99.90;;;;;;10393544;28;20716;-84
2023/06/08 00:51:16;;;;;;;6.07;5.55;;;15.00;99.90;;;;;;10392787;28;20227;-84
2023/06/08 00:56:19;;;;;;;13.38;9.25;;;15.00;99.90;;;;;;10389729;28;20674;-84
2023/06/08 01:01:24;;;;;;;13.65;8.45;;;14.90;99.90;;;;;;10393080;28;20564;-84
2023/06/08 01:06:28;;;;;;;12.07;7.70;;;14.80;99.90;;;;;;10356736;28;20228;-84
2023/06/08 01:11:31;;;;;;;12.85;8.40;;;14.80;99.90;;;;;;10347601;28;20239;-84
2023/06/08 01:16:39;;;;;;;8.60;5.75;;;14.90;99.90;;;;;;10392657;28;20231;-85
2023/06/08 01:21:58;;;;;;;10.73;8.65;;;14.70;99.90;;;;;;10389244;28;20646;-84
2023/06/08 01:27:01;;;;;;;7.63;6.82;;;14.80;99.90;;;;;;10360923;28;20278;-84
2023/06/08 01:32:04;;;;;;;9.88;7.68;;;15.20;99.90;;;;;;10350580;28;20302;-84
2023/06/08 01:37:23;;;;;;;10.32;9.25;;;15.10;99.90;;;;;;10359894;28;20294;-84
2023/06/08 01:42:27;;;;;;;9.57;8.43;;;14.90;99.90;;;;;;10367849;28;20683;-84
2023/06/08 01:47:42;;;;;;;14.48;8.98;;;14.60;99.90;;;;;;10350111;28;20282;-84
2023/06/08 01:52:45;;;;;;;10.02;8.95;;;14.80;99.90;;;;;;10403446;28;20235;-84
2023/06/08 01:57:47;;;;;;;10.13;8.10;;;14.60;99.90;;;;;;10373897;28;20289;-84
2023/06/08 02:02:50;;;;;;;12.38;8.00;;;14.40;99.90;;;;;;10337096;28;20237;-84
2023/06/08 02:07:55;;;;;;;12.93;9.48;;;14.40;99.90;;;;;;10329789;28;20292;-84
2023/06/08 02:12:57;;;;;;;10.60;9.50;;;14.40;99.90;;;;;;10341468;28;20221;-85
2023/06/08 02:18:00;;;;;;;10.38;9.38;;;14.20;99.90;;;;;;10341389;28;20264;-84
2023/06/08 02:23:02;;;;;;;11.60;9.65;;;14.10;99.90;;;;;;10403947;28;20301;-84
2023/06/08 02:28:05;;;;;;;12.80;8.52;;;14.20;99.90;;;;;;10349530;28;20289;-84
2023/06/08 02:33:08;;;;;;;10.98;8.20;;;14.20;99.90;;;;;;10349304;28;20208;-84
2023/06/08 02:38:10;;;;;;;8.73;7.65;;;14.20;99.90;;;;;;10386579;28;20555;-84
2023/06/08 02:43:15;;;;;;;9.80;8.48;;;14.20;99.90;;;;;;10407454;28;20273;-84
2023/06/08 02:48:20;;;;;;;14.30;10.57;;;14.40;99.90;;;;;;10388948;28;20594;-84
2023/06/08 02:53:23;;;;;;;10.40;7.88;;;14.40;99.90;;;;;;10388066;28;20231;-84
2023/06/08 02:58:26;;;;;;;12.10;10.75;;;14.70;99.90;;;;;;10388727;28;20267;-84
2023/06/08 03:03:29;;;;;;;8.68;7.00;;;14.40;99.90;;;;;;10351878;28;20804;-84
2023/06/08 03:08:37;;;;;;;9.32;8.32;;;14.60;99.90;;;;;;10383067;28;20682;-84
2023/06/08 03:13:43;;;;;;;9.52;8.52;;;14.80;99.90;;;;;;10388270;28;20751;-84
2023/06/08 03:18:46;;;;;;;12.70;7.97;;;14.80;99.90;;;;;;10414452;28;20690;-84
2023/06/08 03:23:49;;;;;;;12.77;9.82;;;14.50;99.90;;;;;;10371840;28;20285;-84
2023/06/08 03:28:55;;;;;;;15.23;9.48;;;14.70;99.90;;;;;;10371081;28;20247;-84
2023/06/08 03:33:58;;;;;;;9.57;8.65;;;14.80;99.90;;;;;;10355139;28;20208;-84
2023/06/08 03:39:02;;;;;;;11.00;9.90;;;14.90;99.90;;;;;;10354668;28;20264;-85
2023/06/08 03:44:05;;;;;;;15.38;10.13;;;15.20;99.90;;;;;;10408506;28;20262;-84
2023/06/08 03:49:11;;;;;;;11.65;9.60;;;15.30;99.90;;;;;;10395033;28;20319;-84
2023/06/08 03:54:14;;;;;;;12.38;9.05;;;15.40;99.90;;;;;;10413095;28;20618;-84
2023/06/08 03:59:16;;;;;;;12.88;9.85;;;15.50;99.90;;;;;;10376923;28;20247;-84
2023/06/08 04:04:23;;;;;;;10.95;9.55;;;15.50;99.90;;;;;;10359492;28;20268;-86
2023/06/08 04:09:27;;;;;;;14.60;9.38;;;15.50;99.90;;;;;;10370266;28;20244;-85
2023/06/08 04:14:31;;;;;;;15.90;10.98;;;15.70;99.90;;;;;;10364549;28;20247;-84
2023/06/08 04:19:33;;;;;;;8.57;6.35;;;15.90;99.90;;;;;;10385306;28;20259;-84
2023/06/08 04:24:38;;;;;;;10.73;9.07;;;16.10;99.90;;;;;;10378914;28;20294;-84
2023/06/08 04:29:42;;;;;;;12.52;9.95;;;16.40;99.90;;;;;;10352769;28;20291;-84
2023/06/08 04:34:45;;;;;;;10.30;8.57;;;16.60;99.90;;;;;;10352629;28;20295;-85
2023/06/08 04:39:48;;;;;;;11.80;9.40;;;16.70;99.90;;;;;;10395926;28;20812;-85
2023/06/08 04:44:59;;;;;;;13.57;9.85;;;16.80;99.90;;;;;;10389985;28;20231;-84
2023/06/08 04:50:03;;;;;;;11.15;8.25;;;16.90;99.90;;;;;;10393061;28;20296;-84
2023/06/08 04:55:09;;;;;;;9.70;8.82;;;17.10;99.90;;;;;;10361667;28;20336;-84
2023/06/08 05:00:14;;;;;;;7.18;6.47;;;17.30;99.90;;;;;;10375302;28;20294;-84
2023/06/08 05:05:19;;;;;;;10.30;6.90;;;17.50;99.90;;;;;;10355033;28;20689;-84
2023/06/08 05:10:22;;;;;;;11.85;8.50;;;17.80;99.90;;;;;;10352512;28;20247;-85
2023/06/08 05:15:25;;;;;;;9.30;6.95;;;18.20;99.90;;;;;;10392565;28;20247;-85
2023/06/08 05:20:29;;;;;;;9.82;8.75;;;18.60;99.90;;;;;;10389427;28;20259;-84
2023/06/08 05:25:37;;;;;;;8.80;7.95;;;;;;;;;;10370495;28;20239;-85
2023/06/08 05:30:40;;;;;;;10.30;9.13;;;;;;;;;;10409731;28;20687;-84
2023/06/08 05:35:42;;;;;;;8.88;8.05;;;19.10;99.90;;;;;;10391769;28;20235;-84
2023/06/08 05:40:45;;;;;;;8.52;7.63;;;19.30;99.90;;;;;;10386558;28;20307;-85
2023/06/08 05:45:47;;;;;;;15.30;10.80;;;19.40;99.90;;;;;;10310275;28;20245;-85
2023/06/08 05:50:50;;;;;;;17.20;10.73;;;19.80;99.90;;;;;;10365756;28;20633;-85
2023/06/08 05:55:52;;;;;;;7.75;5.50;;;19.90;99.90;;;;;;10363199;28;20262;-85
2023/06/08 06:00:58;;;;;;;6.38;5.85;;;20.30;99.90;;;;;;10400135;28;20317;-84
2023/06/08 06:06:01;;;;;;;18.80;10.95;;;20.70;99.90;;;;;;10382440;28;20675;-85
2023/06/08 06:11:03;;;;;;;11.68;8.77;;;21.10;98.20;;;;;;10405576;28;20706;-84
2023/06/08 06:16:06;;;;;;;10.52;8.38;;;21.50;97.50;;;;;;10355192;28;20231;-85
2023/06/08 06:21:09;;;;;;;5.30;4.80;;;21.80;95.90;;;;;;10348697;28;20259;-85
2023/06/08 06:26:13;;;;;;;6.70;6.20;;;22.10;95.90;;;;;;10366262;28;20291;-85
2023/06/08 06:31:16;;;;;;;6.93;6.32;;;22.20;95.50;;;;;;10400272;28;20235;-84
2023/06/08 06:36:19;;;;;;;11.93;9.70;;;22.30;95.40;;;;;;10367028;28;20239;-84
2023/06/08 06:41:21;;;;;;;8.18;7.40;;;22.40;93.40;;;;;;10348112;28;20274;-84
2023/06/08 06:46:25;;;;;;;6.35;5.85;;;22.50;94.10;;;;;;10392371;28;20643;-85
2023/06/08 06:51:27;;;;;;;4.40;4.00;;;22.70;93.50;;;;;;10391885;28;20623;-84
2023/06/08 06:56:31;;;;;;;8.30;7.53;;;22.70;93.20;;;;;;10374495;28;20301;-86
2023/06/08 07:01:35;;;;;;;4.88;4.47;;;22.80;92.50;;;;;;10374508;28;20248;-85
2023/06/08 07:06:38;;;;;;;5.28;4.88;;;22.80;93.30;;;;;;10374752;28;20841;-88
2023/06/08 07:11:41;;;;;;;6.50;5.90;;;22.90;93.30;;;;;;10388414;28;20243;-86
2023/06/08 07:16:43;;;;;;;11.75;8.73;;;23.00;93.10;;;;;;10377455;28;20285;-86
2023/06/08 07:21:46;;;;;;;9.05;8.13;;;23.20;91.30;;;;;;10373009;28;20627;-87
2023/06/08 07:32:35;;;;;;;6.28;5.68;;;23.60;90.50;;;;;;10393758;23;20278;-84
2023/06/08 07:37:37;;;;;;;8.50;7.70;;;24.00;93.20;;;;;;10338080;28;20262;-84
2023/06/08 07:42:42;;;;;;;12.07;9.80;;;23.90;88.80;;;;;;10386078;28;20264;-84
2023/06/08 07:47:44;;;;;;;8.63;7.82;;;24.20;84.80;;;;;;10372468;28;20293;-84
2023/06/08 07:52:47;;;;;;;12.57;7.72;;;24.00;82.50;;;;;;10372473;28;20317;-84
2023/06/08 07:57:50;;;;;;;13.07;10.73;;;24.30;82.20;;;;;;10372473;28;20236;-84
2023/06/08 08:02:53;;;;;;;10.25;9.25;;;24.50;79.40;;;;;;10370810;28;21079;-84
2023/06/08 08:07:56;;;;;;;10.70;8.93;;;24.70;75.90;;;;;;10371511;28;20204;-84
2023/06/08 08:12:59;;;;;;;10.27;9.07;;;24.70;73.20;;;;;;10373222;28;20883;-85
2023/06/08 08:18:02;;;;;;;8.70;7.75;;;24.90;69.00;;;;;;10372795;28;20208;-84
2023/06/08 08:23:05;;;;;;;12.23;8.27;;;25.00;70.50;;;;;;10372595;28;20260;-84
2023/06/08 08:28:08;;;;;;;7.95;7.22;;;25.10;68.20;;;;;;10409145;28;20208;-85
2023/06/08 08:33:12;;;;;;;9.10;7.97;;;25.20;65.30;;;;;;10407892;28;20654;-85
2023/06/08 08:38:19;;;;;;;10.73;9.50;;;25.40;61.50;;;;;;10409203;28;20289;-85
2023/06/08 08:43:34;;;;;;;12.05;8.15;;;25.50;59.20;;;;;;10370256;28;20932;-86
2023/06/08 08:48:44;;;;;;;11.70;8.23;;;25.50;59.20;;;;;;10353358;28;20269;-85
2023/06/08 08:53:48;;;;;;;12.73;7.18;;;25.60;57.60;;;;;;10410923;28;20203;-85
2023/06/08 08:58:52;;;;;;;11.68;7.97;;;25.70;49.20;;;;;;10405164;28;20740;-85
2023/06/08 09:03:55;;;;;;;8.85;7.20;;;25.90;53.60;;;;;;10402504;28;20242;-82
2023/06/08 09:08:57;;;;;;;9.63;6.82;;;26.00;48.00;;;;;;10416383;28;20265;-83
2023/06/08 09:14:09;;;;;;;10.40;6.65;;;26.00;46.20;;;;;;10360805;28;20212;-90
2023/06/08 09:19:12;;;;;;;7.03;6.32;;;26.20;36.60;;;;;;10373307;28;20635;-91
2023/06/08 09:24:17;;;;;;;6.97;6.22;;;26.20;34.00;;;;;;10373715;28;20282;-91
2023/06/08 09:29:36;;;;;;;9.40;6.65;;;26.40;29.00;;;;;;10372958;28;20916;-92
2023/06/08 09:34:56;;;;;;;10.00;6.85;;;26.60;28.90;;;;;;10372413;28;20196;-92
2023/06/08 09:40:08;;;;;;;7.93;6.15;;;26.70;27.70;;;;;;10373092;28;20228;-93
2023/06/08 09:45:13;;;;;;;12.27;6.82;;;26.80;20.80;;;;;;10372655;28;20615;-92
2023/06/08 09:50:16;;;;;;;8.38;5.32;;;26.80;25.90;;;;;;10372847;28;20204;-92
2023/06/08 09:55:20;;;;;;;7.45;6.18;;;26.90;22.00;;;;;;10388355;28;20196;-92
2023/06/08 10:00:25;;;;;;;5.97;5.40;;;27.10;23.40;;;;;;10372276;28;20232;-92
2023/06/08 10:05:33;;;;;;;5.97;4.93;;;27.20;19.30;;;;;;10355455;28;20189;-92
2023/06/08 10:10:37;;;;;;;8.38;4.75;;;27.50;18.70;;;;;;10370664;28;20567;-93
2023/06/08 10:15:41;;;;;;;7.50;6.82;;;27.60;17.90;;;;;;10387269;28;20216;-92
2023/06/08 10:20:45;;;;;;;7.43;6.22;;;27.40;21.30;;;;;;10370525;28;20647;-91
2023/06/08 10:25:50;;;;;;;6.75;6.15;;;27.50;16.00;;;;;;10371457;28;20247;-93
2023/06/08 10:30:53;;;;;;;10.70;5.25;;;27.70;21.10;;;;;;10387866;28;20220;-93
2023/06/08 10:36:10;;;;;;;6.65;6.05;;;28.00;18.10;;;;;;10354854;28;20204;-92
2023/06/08 10:41:42;;;;;;;9.52;5.18;;;28.20;18.00;;;;;;10371919;28;20642;-93
2023/06/08 10:46:45;;;;;;;7.35;6.75;;;;;;;;;;10371325;28;20572;-93
2023/06/08 10:51:54;;;;;;;6.78;6.07;;;27.60;19.60;;;;;;10369789;28;20204;-93
2023/06/08 10:57:03;;;;;;;6.63;4.57;;;27.50;22.30;;;;;;10353763;28;20272;-93
2023/06/08 11:02:19;;;;;;;7.78;5.90;;;27.60;17.10;;;;;;10355669;28;20212;-91
2023/06/08 11:07:25;;;;;;;9.73;6.35;;;27.70;16.90;;;;;;10370738;28;20231;-94
2023/06/08 11:12:28;;;;;;;5.97;5.38;;;27.80;17.00;;;;;;10372447;28;20193;-93
2023/06/08 11:17:39;;;;;;;8.05;6.97;;;27.80;17.10;;;;;;10387461;28;20561;-93
2023/06/08 11:22:41;;;;;;;5.95;5.38;;;27.90;19.30;;;;;;10372495;28;20225;-94
2023/06/08 11:27:44;;;;;;;7.38;5.97;;;28.00;18.40;;;;;;10371764;28;20564;-93
2023/06/08 11:32:51;;;;;;;7.25;5.97;;;27.90;14.60;;;;;;10370179;28;20259;-93
2023/06/08 11:38:00;;;;;;;5.65;5.10;;;28.10;16.60;;;;;;10358971;28;20262;-93
2023/06/08 11:43:03;;;;;;;12.80;6.13;;;28.10;17.40;;;;;;10353253;28;20279;-92
2023/06/08 11:48:06;;;;;;;6.00;5.10;;;28.00;17.20;;;;;;10338198;28;20205;-94
2023/06/08 11:53:22;;;;;;;5.95;5.25;;;27.90;17.10;;;;;;10352924;28;20205;-93
2023/06/08 11:58:30;;;;;;;6.38;5.78;;;28.10;11.20;;;;;;10352788;28;20744;-93
2023/06/08 12:03:53;;;;;;;5.32;4.82;;;28.40;11.90;;;;;;10369661;28;20256;-92
2023/06/08 12:08:56;;;;;;;7.82;5.18;;;28.30;14.30;;;;;;10337953;28;20201;-93
2023/06/08 12:13:59;;;;;;;5.30;4.80;;;;;;;;;;10339489;28;20566;-93
2023/06/08 12:19:06;;;;;;;6.18;4.30;;;28.50;14.00;;;;;;10339020;28;20768;-93
2023/06/08 12:24:10;;;;;;;6.25;5.18;;;28.80;9.90;;;;;;10339550;28;20703;-93
2023/06/08 12:29:14;;;;;;;6.40;5.82;;;28.70;7.80;;;;;;10339225;28;20217;-93
2023/06/08 12:34:17;;;;;;;6.38;4.78;;;28.90;8.60;;;;;;10375473;28;20181;-93
2023/06/08 12:39:20;;;;;;;9.30;5.18;;;29.20;6.70;;;;;;10420204;28;20193;-93
2023/06/08 12:44:23;;;;;;;6.35;5.75;;;29.10;9.00;;;;;;10386919;28;20221;-92
2023/06/08 12:49:26;;;;;;;7.93;5.53;;;29.00;9.30;;;;;;10386970;28;20177;-93
2023/06/08 12:54:28;;;;;;;6.10;5.35;;;28.70;7.90;;;;;;10419679;28;20184;-93
2023/06/08 12:59:31;;;;;;;6.25;5.65;;;28.50;10.60;;;;;;10387658;28;20212;-93
2023/06/08 13:04:33;;;;;;;6.50;5.78;;;28.20;14.20;;;;;;10418248;28;20228;-94
2023/06/08 13:09:38;;;;;;;6.38;5.78;;;27.80;10.90;;;;;;10386965;28;20169;-93
2023/06/08 13:14:40;;;;;;;6.72;4.60;;;27.70;10.40;;;;;;10386605;28;20204;-92
2023/06/08 13:19:45;;;;;;;5.78;5.18;;;27.70;9.40;;;;;;10386661;28;20196;-92
2023/06/08 13:24:48;;;;;;;5.18;4.40;;;27.90;10.70;;;;;;10418032;28;20239;-92
2023/06/08 13:29:50;;;;;;;9.95;5.22;;;27.90;8.80;;;;;;10386012;28;20244;-93
2023/06/08 13:34:55;;;;;;;5.63;4.72;;;27.80;9.00;;;;;;10401638;28;20208;-92
2023/06/08 13:39:58;;;;;;;6.13;5.53;;;27.80;8.00;;;;;;10386652;28;20201;-92
2023/06/08 13:45:01;;;;;;;4.85;4.45;;;27.90;8.50;;;;;;10425737;28;20224;-92
2023/06/08 13:50:04;;;;;;;5.85;5.35;;;28.00;12.20;;;;;;10426292;28;20180;-92
2023/06/08 13:55:08;;;;;;;5.88;4.47;;;28.10;9.40;;;;;;10426145;28;20198;-92
2023/06/08 14:00:11;;;;;;;6.00;5.45;;;28.20;11.30;;;;;;10424769;28;20203;-93
2023/06/08 14:05:17;;;;;;;8.07;5.32;;;28.50;9.10;;;;;;10425613;28;20286;-92
2023/06/08 14:10:20;;;;;;;6.32;5.57;;;28.60;8.80;;;;;;10424877;28;20219;-92
2023/06/08 14:15:22;;;;;;;4.93;4.53;;;28.70;9.50;;;;;;10440791;28;20215;-92
2023/06/08 14:20:27;;;;;;;7.68;6.05;;;28.50;14.80;;;;;;10424816;28;20211;-92
2023/06/08 14:25:32;;;;;;;6.22;4.95;;;28.20;10.50;;;;;;10425173;28;20207;-91
2023/06/08 14:30:36;;;;;;;7.07;5.32;;;28.10;9.70;;;;;;10440241;28;20246;-93
2023/06/08 14:35:40;;;;;;;5.40;4.90;;;28.10;8.30;;;;;;10424864;28;20207;-92
2023/06/08 14:40:43;;;;;;;9.50;4.85;;;28.20;8.40;;;;;;10422874;28;20241;-93
2023/06/08 14:45:45;;;;;;;5.43;4.88;;;28.30;7.90;;;;;;10423090;28;20191;-93
2023/06/08 14:50:48;;;;;;;4.93;4.53;;;28.50;11.50;;;;;;10424088;28;20188;-93
2023/06/08 14:55:50;;;;;;;6.40;5.80;;;28.50;12.20;;;;;;10423836;28;20188;-93
2023/06/08 15:00:53;;;;;;;5.78;5.28;;;28.50;13.80;;;;;;10407556;28;20188;-93
2023/06/08 15:05:55;;;;;;;4.68;4.22;;;28.40;17.70;;;;;;10424432;28;20180;-93
2023/06/08 15:10:58;;;;;;;6.35;5.03;;;28.30;9.50;;;;;;10426027;28;20205;-93
2023/06/08 15:16:01;;;;;;;4.80;4.43;;;28.30;6.40;;;;;;10430842;28;20193;-93
2023/06/08 15:21:03;;;;;;;4.47;4.07;;;28.20;8.10;;;;;;10432087;28;20204;-94
2023/06/08 15:26:06;;;;;;;12.80;5.38;;;28.00;10.00;;;;;;10431384;28;20184;-93
2023/06/08 15:31:08;;;;;;;9.63;4.93;;;27.80;7.40;;;;;;10414443;28;20239;-93
2023/06/08 15:36:11;;;;;;;6.80;5.07;;;27.60;7.70;;;;;;10431828;28;20223;-93
2023/06/08 15:41:14;;;;;;;10.43;4.90;;;27.60;8.90;;;;;;10431538;28;20212;-94
2023/06/08 15:46:17;;;;;;;5.40;4.90;;;27.50;9.50;;;;;;10413961;28;20207;-93
2023/06/08 15:51:30;;;;;;;5.15;4.55;;;27.30;11.00;;;;;;10432034;28;20223;-93
2023/06/08 15:56:33;;;;;;;13.70;5.22;;;27.20;12.50;;;;;;10431563;28;20203;-94
2023/06/08 16:01:37;;;;;;;11.23;5.53;;;27.00;12.50;;;;;;10431776;28;20224;-94
2023/06/08 16:06:41;;;;;;;13.65;5.10;;;26.90;13.00;;;;;;10431766;28;20172;-92
2023/06/08 16:11:44;;;;;;;6.20;5.07;;;26.70;13.80;;;;;;10431752;28;20211;-93
2023/06/08 16:16:46;;;;;;;7.40;5.22;;;26.50;13.70;;;;;;10430534;28;20200;-93
2023/06/08 16:21:49;;;;;;;9.25;5.15;;;26.40;14.20;;;;;;10430059;28;20219;-94
2023/06/08 16:26:56;;;;;;;10.27;5.80;;;26.10;14.80;;;;;;10430968;28;20197;-93
2023/06/08 16:31:59;;;;;;;13.13;5.22;;;25.90;15.60;;;;;;10430507;28;20224;-93
2023/06/08 16:37:02;;;;;;;11.55;5.75;;;25.70;17.00;;;;;;10413867;28;20211;-93
2023/06/08 16:42:05;;;;;;;13.80;5.53;;;25.60;18.60;;;;;;10429605;28;20208;-95
2023/06/08 16:47:08;;;;;;;9.95;5.85;;;25.50;17.90;;;;;;10397457;28;20184;-94
2023/06/08 16:52:11;;;;;;;6.80;5.78;;;25.40;17.80;;;;;;10429409;28;20176;-93
2023/06/08 16:57:13;;;;;;;8.23;5.78;;;25.20;17.50;;;;;;10429615;28;20172;-93
2023/06/08 17:02:16;;;;;;;10.32;5.97;;;25.00;18.40;;;;;;10429658;28;20219;-93
2023/06/08 17:07:18;;;;;;;14.35;6.50;;;25.00;18.50;;;;;;10429290;28;20215;-92
2023/06/08 17:12:23;;;;;;;15.30;6.28;;;25.00;18.50;;;;;;10428897;28;20184;-94
2023/06/08 17:17:25;;;;;;;13.65;6.82;;;25.00;19.10;;;;;;10428174;28;20203;-94
2023/06/08 17:22:28;;;;;;;12.45;6.50;;;25.00;20.70;;;;;;10411093;28;20227;-93
2023/06/08 17:27:31;;;;;;;13.95;6.53;;;25.00;22.70;;;;;;10428749;28;20181;-94
2023/06/08 17:32:33;;;;;;;11.43;6.78;;;24.80;21.50;;;;;;10427769;28;20205;-93
2023/06/08 17:37:36;;;;;;;10.27;6.30;;;24.80;23.20;;;;;;10411214;28;20184;-93
2023/06/08 17:42:38;;;;;;;13.45;6.65;;;24.70;21.90;;;;;;10426623;28;20204;-93
2023/06/08 17:47:41;;;;;;;7.25;6.28;;;24.50;22.50;;;;;;10427797;28;20176;-92
2023/06/08 17:53:00;;;;;;;12.93;6.43;;;24.30;23.60;;;;;;10443459;28;20184;-93
2023/06/08 17:58:03;;;;;;;10.43;6.78;;;24.10;23.70;;;;;;10427610;28;20227;-94
2023/06/08 18:03:07;;;;;;;8.65;6.88;;;23.80;26.60;;;;;;10442845;28;20234;-92
2023/06/08 18:08:10;;;;;;;14.25;7.15;;;23.60;25.80;;;;;;10426864;28;20172;-94
2023/06/08 18:13:15;;;;;;;13.20;6.45;;;23.30;25.80;;;;;;10426756;28;20196;-94
2023/06/08 18:18:18;;;;;;;7.55;6.10;;;23.20;27.20;;;;;;10409876;28;20212;-93
2023/06/08 18:23:20;;;;;;;9.75;5.88;;;23.00;28.80;;;;;;10426659;28;20219;-94
2023/06/08 18:28:23;;;;;;;11.43;6.05;;;22.90;29.40;;;;;;10409036;28;20222;-94
2023/06/08 18:33:26;;;;;;;9.45;6.25;;;22.70;31.20;;;;;;10426447;28;20216;-93
2023/06/08 18:38:28;;;;;;;21.25;6.38;;;22.50;32.50;;;;;;10410109;28;20184;-93
2023/06/08 18:43:31;;;;;;;15.82;6.47;;;22.20;35.70;;;;;;10425826;28;20208;-92
2023/06/08 18:48:33;;;;;;;11.60;6.00;;;21.90;36.00;;;;;;10432909;28;20207;-93
2023/06/08 18:53:36;;;;;;;9.88;6.07;;;21.60;38.20;;;;;;10434642;28;20239;-94
2023/06/08 18:58:39;;;;;;;17.63;6.45;;;21.40;43.60;;;;;;10434204;28;20245;-93
2023/06/08 19:03:42;;;;;;;16.42;6.97;;;21.10;45.30;;;;;;10433978;28;20208;-94
2023/06/08 19:08:44;;;;;;;15.27;6.93;;;20.80;47.60;;;;;;10434034;28;20172;-94
2023/06/08 19:13:47;;;;;;;19.02;7.40;;;20.50;54.70;;;;;;10433490;28;20237;-94
2023/06/08 19:18:50;;;;;;;8.45;6.55;;;20.20;57.20;;;;;;10398315;28;20212;-95
2023/06/08 19:23:52;;;;;;;16.17;6.80;;;20.10;62.10;;;;;;10383406;28;20224;-94
2023/06/08 19:28:55;;;;;;;20.42;8.60;;;19.60;75.00;;;;;;10383826;28;20306;-94
2023/06/08 19:33:58;;;;;;;12.68;6.28;;;19.50;76.50;;;;;;10383233;28;20612;-94
2023/06/08 19:39:01;;;;;;;8.18;6.47;;;19.40;83.20;;;;;;10382789;28;20687;-93
2023/06/08 19:44:04;;;;;;;10.73;6.45;;;19.30;87.80;;;;;;10382662;28;20216;-94
2023/06/08 19:49:07;;;;;;;15.27;7.57;;;19.20;90.00;;;;;;10380952;28;20208;-93
2023/06/08 19:54:09;;;;;;;18.38;7.25;;;19.00;91.50;;;;;;10365667;28;20528;-93
2023/06/08 19:59:15;;;;;;;18.13;7.80;;;18.90;92.00;;;;;;10382198;28;20208;-94
2023/06/08 20:04:18;;;;;;;10.88;6.50;;;18.70;93.50;;;;;;10382283;28;20230;-94
2023/06/08 20:09:22;;;;;;;16.67;8.13;;;18.60;94.40;;;;;;10364352;28;20212;-93
2023/06/08 20:14:25;;;;;;;15.00;7.07;;;18.50;96.00;;;;;;10381803;28;20212;-94
2023/06/08 20:19:30;;;;;;;10.70;6.68;;;18.40;96.50;;;;;;10364311;28;20231;-94
2023/06/08 20:24:36;;;;;;;14.77;7.00;;;18.30;96.70;;;;;;10378750;28;20224;-93
2023/06/08 20:29:39;;;;;;;18.38;8.65;;;18.20;97.70;;;;;;10379126;28;20243;-93
2023/06/08 20:34:41;;;;;;;15.82;7.03;;;18.10;98.10;;;;;;10380374;28;20196;-93
2023/06/08 20:39:44;;;;;;;18.10;9.07;;;18.00;98.00;;;;;;10380449;28;20251;-93
2023/06/08 20:44:46;;;;;;;19.75;9.50;;;17.90;97.70;;;;;;10378933;28;20224;-94
2023/06/08 20:49:49;;;;;;;26.73;8.70;;;17.80;97.90;;;;;;10378792;28;20200;-93
2023/06/08 20:54:53;;;;;;;14.90;8.02;;;17.80;98.50;;;;;;10376888;28;20208;-94
2023/06/08 20:59:56;;;;;;;15.63;8.75;;;17.90;98.80;;;;;;10377702;28;20200;-94
2023/06/08 21:04:58;;;;;;;12.93;8.45;;;17.90;99.20;;;;;;10360049;28;20224;-93
2023/06/08 21:10:01;;;;;;;13.13;8.25;;;17.80;99.90;;;;;;10359879;28;20259;-93
2023/06/08 21:15:04;;;;;;;22.67;8.52;;;17.80;99.90;;;;;;10376985;28;20682;-94
2023/06/08 21:20:08;;;;;;;9.88;7.20;;;17.80;99.90;;;;;;10360157;28;20224;-93
2023/06/08 21:25:11;;;;;;;19.80;8.43;;;17.80;99.90;;;;;;10375243;28;20270;-93
2023/06/08 21:30:14;;;;;;;15.48;10.85;;;17.80;99.90;;;;;;10374848;28;20228;-94
2023/06/08 21:35:16;;;;;;;24.55;10.82;;;17.90;99.90;;;;;;10375724;28;20266;-94
2023/06/08 21:40:19;;;;;;;15.82;9.90;;;17.80;99.90;;;;;;10359241;28;20204;-94
2023/06/08 21:45:21;;;;;;;15.48;12.30;;;17.60;99.90;;;;;;10357303;28;20282;-93
2023/06/08 21:50:24;;;;;;;17.05;13.38;;;17.50;99.80;;;;;;10373799;28;20212;-93
2023/06/08 21:55:27;;;;;;;10.52;9.52;;;17.50;99.40;;;;;;10356940;28;20208;-92
2023/06/08 22:00:29;;;;;;;13.60;11.57;;;17.60;99.20;;;;;;10373848;28;20216;-93
2023/06/08 22:05:31;;;;;;;16.23;8.50;;;17.60;98.80;;;;;;10357372;28;20247;-93
2023/06/08 22:10:36;;;;;;;25.58;12.55;;;17.60;99.90;;;;;;10374574;28;20234;-94
2023/06/08 22:15:39;;;;;;;16.80;11.35;;;17.50;98.30;;;;;;10374623;28;20208;-93
2023/06/08 22:20:42;;;;;;;25.50;11.98;;;17.40;98.00;;;;;;10373712;28;20200;-94
2023/06/08 22:25:44;;;;;;;18.90;9.60;;;17.30;98.40;;;;;;10374616;28;20216;-94
2023/06/08 22:30:50;;;;;;;17.15;11.23;;;17.10;99.10;;;;;;10373855;28;20571;-93
2023/06/08 22:35:53;;;;;;;15.77;11.45;;;17.00;99.20;;;;;;10374777;28;20200;-93
2023/06/08 22:40:55;;;;;;;13.63;11.07;;;17.00;99.50;;;;;;10373669;28;20204;-94
2023/06/08 22:45:58;;;;;;;17.98;12.10;;;17.00;99.20;;;;;;10373391;28;20251;-93
2023/06/08 22:51:01;;;;;;;15.40;12.27;;;16.60;99.90;;;;;;10373311;28;20204;-93
2023/06/08 22:56:04;;;;;;;19.70;13.48;;;16.50;99.90;;;;;;10372797;28;20736;-93
2023/06/08 23:01:08;;;;;;;16.98;10.93;;;16.40;99.90;;;;;;10354878;28;20294;-95
2023/06/08 23:06:11;;;;;;;9.60;8.38;;;16.30;99.90;;;;;;10372439;28;20212;-94
2023/06/08 23:11:16;;;;;;;17.98;11.20;;;16.30;99.90;;;;;;10353575;28;20615;-93
2023/06/08 23:16:21;;;;;;;12.73;11.10;;;16.20;99.90;;;;;;10369253;28;20267;-93
2023/06/08 23:21:24;;;;;;;14.90;11.77;;;16.10;99.90;;;;;;10371375;28;20228;-92
2023/06/08 23:26:29;;;;;;;17.40;13.38;;;15.90;99.90;;;;;;10353690;28;20363;-95
2023/06/08 23:31:33;;;;;;;13.88;11.98;;;15.80;99.90;;;;;;10354672;28;20278;-94
2023/06/08 23:36:36;;;;;;;23.42;13.95;;;15.80;99.90;;;;;;10360035;28;20205;-93
2023/06/08 23:41:38;;;;;;;15.65;13.32;;;15.70;99.90;;;;;;10378168;28;20201;-94
2023/06/08 23:46:42;;;;;;;17.83;13.00;;;15.50;99.90;;;;;;10360329;28;20228;-94
2023/06/08 23:51:44;;;;;;;18.80;14.27;;;15.40;99.90;;;;;;10377572;28;20204;-94
2023/06/08 23:56:47;;;;;;;12.43;10.52;;;15.30;99.90;;;;;;10377429;28;20300;-92
